Terminal Aerodrome Forecast
Issued by NWS

Home | Current Version | Previous Version | Text Only | Print | Product List | Glossary On
Versions: 1 2 3 4 5 6 7 8 9 10 11 12 13 14 15 16 17 18 19
000
FTUS43 KIND 290856 AAA
TAFLAF
TAF AMD
KLAF 290856Z 2909/3006 VRB03KT 4SM BR OVC010
      TEMPO 2909/2912 2SM BR
     FM291500 VRB06KT P6SM SCT015 BKN035
      AMD LTD TO CLD VIS AND WIND TIL 291300=

USA.gov is the U.S. government's official web portal to all federal, state and local government web resources and services.